McCarran International, NV

8:24 AM PDT en Septiembre 28, 2016 (GMT -0700)
Mandalay Bay | | Change Station

Alt 2185 ft 36.09 °N, 115.17 °W | Updated 5 seconds ago

Mostly Cloudy
Muy nublado
74.4 ° F
Sensación térmica 77 ° F
N
3.7
Viento Variable Viento desde Este
Gusts 4.0 mph

Hoy
Alta -- | Baja -- ° F
--% Posibilidad de precipitaciones
Ayer
Alta -- | Baja -- ° F
Precip. -- pul
Presión 29.98 pul
Visibilidad 10.0 Millas
Nubes Nubes dispersas 11000 ft
Muy nublado 15000 ft
Muy nublado 20000 ft
Índice de calor 77 ° F
Punto de rocío 51 ° F
Humedad 44%
Precipitaciones 0.00 pul
Espesor de la nieve No disponible.
6:33 AM 6:27 PM
Creciente menguante, 5% visible
METAR KLAS 281456Z 15004KT 10SM SCT110 BKN150 BKN200 23/08 A3004 RMK AO2 SLP152 VCSH T02280083 51011 $
Presión 29.98 pul
Visibilidad 10.0 Millas
Nubes Nubes dispersas 11000 ft
Muy nublado 15000 ft
Muy nublado 20000 ft
Índice de calor 77 ° F
Punto de rocío 51 ° F
Humedad 44%
Precipitaciones 0.00 pul
Espesor de la nieve No disponible.
6:33 AM 6:27 PM
Creciente menguante, 5% visible
METAR KLAS 281456Z 15004KT 10SM SCT110 BKN150 BKN200 23/08 A3004 RMK AO2 SLP152 VCSH T02280083 51011 $

10-Day Weather Forecast

Almanac

Astronomía

Sep. 28, 2016 Salida Puesta
Hora real
Crepúsculo civil
Crepúsculo náutico
Crepúsculo astronómico
Luna
Horas de luz
Horas de luz
Tomorrow will be .
, % of the Moon is Illuminated

Extremos de hoy

Máximos del estado Bajos del estado

Community

WunderPhotos

Upload Photos

1,942,279 ¡fotos cargadas!

WunderBlog® & News

Nearby

Calidad del aire

  Calidad del aire Índice AQ Contaminante
Not available.

Grosos de nieve

Estación Profundido Altura

Actividad de terremotos

Ciudad Distance Mag. Tiempo y dato
Magnitud mínima muestra es 2,5.

Temperaturas de aguas costeras

Lugar Temperatura

Stations

Estaciones meteorológicas cercanas

Ubicación de la estación Temp. Vientos helados Punto de rocío Humedad Viento Precip. Alt Actualizado Tipo
                   

Watches & Warnings

There are currently no watches in effect.